Главная страница
METAR-TAF:

METAR-TAF

Аэропорты :

Ronneby, Швеция

широта: 56-16N, долгота: 015-17E, высота над уровнем моря: 58 м

Текущие метеонаблюдения

Эта сводка был подготовлена 18 минут назад, в 06:50 UTC
Ветер 11 Узел от южный-юго-западный
Температура 7°C
Влажность 87%
Давление 1015 hPa
Видимость 10 км и более

METAR: ESDF 170650Z AUTO 21011KT 9999 BKN014/// 07/05 Q1015

Время: 08:08 (07:08 UTC)

Прогноз

Эта сводка был подготовлена 19 часа и 38 минут назад, в 11:30 UTC
Прогноз действительный с 16-го 12 UTC до 16-го 16 UTC
Ветер 12 Узел от юго-восточный
Видимость: 5000 м
Рассеянная облачность на высоте 300 фута
временами
С 16-го 12 UTC до 16-го 16 UTC
Видимость: 2000 м
Рассеянная облачность на высоте 500 фута
дымка, Морось

TAF: ESDF 161130Z 1612/1616 14012KT 5000 BKN003 TEMPO 1612/1616 2000 BR DZ BKN005

Метеонаблюдения и прогнозы для более 4000 аэропортов (сводки METAR и TAF).

Имеющиеся станции представлены на карте желтыми и красными точками.

Чтобы увидеть название станции, наведите на нее мышь.

Затем щелкните, чтобы увидеть метеонаблюдения и метеопрогнозы.

Управление картой: чтобы увеличить масштаб, щелкните зеленые кнопки с черным крестиком; чтобы уменьшить масштаб, щелкните зеленую кнопку с тире; для просмотра соседних карт щелкайте зеленые стрелки.


METAR-TAF: